createdAt,value
2023-08-26T00:02:21.358Z,4.07
2023-08-26T00:04:48.920Z,4.07
2023-08-26T00:07:15.955Z,3.80
2023-08-26T00:09:42.989Z,4.45
2023-08-26T00:12:10.145Z,4.00
2023-08-26T00:14:37.269Z,3.60
2023-08-26T00:17:05.843Z,3.53
2023-08-26T00:19:33.215Z,3.28
2023-08-26T00:22:01.872Z,4.20
2023-08-26T00:24:29.200Z,4.00
2023-08-26T00:26:56.433Z,3.20
2023-08-26T00:29:23.552Z,3.67
2023-08-26T00:31:50.786Z,3.38
2023-08-26T00:34:17.884Z,3.15
2023-08-26T00:36:45.248Z,3.78
2023-08-26T00:39:12.462Z,2.78
2023-08-26T00:41:39.558Z,3.42
2023-08-26T00:44:06.765Z,3.58
2023-08-26T00:46:35.893Z,3.40
2023-08-26T00:49:04.093Z,3.05
2023-08-26T00:51:32.378Z,2.97
2023-08-26T00:54:05.940Z,3.42
2023-08-26T00:56:34.447Z,2.92
2023-08-26T00:59:02.413Z,3.43
2023-08-26T01:01:32.861Z,3.65
2023-08-26T01:04:00.104Z,3.33
2023-08-26T01:06:28.317Z,3.28
2023-08-26T01:08:55.867Z,2.88
2023-08-26T01:11:34.166Z,3.08
2023-08-26T01:14:07.050Z,3.15
2023-08-26T01:16:36.389Z,3.25
2023-08-26T01:19:09.420Z,3.45
2023-08-26T01:21:39.059Z,3.33
2023-08-26T01:24:07.615Z,3.10
2023-08-26T01:26:34.686Z,3.67
2023-08-26T01:29:01.875Z,3.50
2023-08-26T01:35:39.112Z,3.38
2023-08-26T01:38:09.108Z,3.20
2023-08-26T01:40:37.998Z,3.35
2023-08-26T01:43:08.842Z,3.17
2023-08-26T01:45:35.901Z,3.03
2023-08-26T01:48:03.132Z,3.58
2023-08-26T01:50:30.522Z,3.30
2023-08-26T01:52:57.578Z,3.50
2023-08-26T01:55:24.670Z,3.60
2023-08-26T01:57:51.749Z,3.83
2023-08-26T02:00:19.101Z,3.88
2023-08-26T02:02:46.285Z,3.60
2023-08-26T02:05:13.433Z,3.67
2023-08-26T02:07:40.485Z,3.38
2023-08-26T02:10:08.224Z,3.90
2023-08-26T02:12:35.304Z,3.28
2023-08-26T02:15:04.458Z,3.28
2023-08-26T02:17:31.826Z,3.58
2023-08-26T02:19:58.998Z,3.03
2023-08-26T02:22:26.087Z,3.92
2023-08-26T02:24:53.170Z,3.10
2023-08-26T02:27:20.271Z,3.58
2023-08-26T02:29:47.337Z,3.28
2023-08-26T02:32:15.440Z,3.00
2023-08-26T02:34:42.508Z,3.63
2023-08-26T02:37:09.594Z,3.10
2023-08-26T02:39:36.828Z,3.00
2023-08-26T02:42:04.083Z,2.90
2023-08-26T02:44:31.097Z,2.40
2023-08-26T02:46:58.209Z,2.47
2023-08-26T02:49:25.239Z,2.28
2023-08-26T02:51:52.317Z,2.25
2023-08-26T02:54:20.604Z,2.50
2023-08-26T02:56:47.686Z,2.75
2023-08-26T02:59:14.741Z,2.40
2023-08-26T03:01:42.042Z,2.28
2023-08-26T03:04:09.172Z,2.10
2023-08-26T03:06:36.279Z,2.00
2023-08-26T03:09:03.951Z,1.90
2023-08-26T03:11:31.015Z,2.20
2023-08-26T03:13:58.102Z,2.00
2023-08-26T03:16:25.195Z,1.77
2023-08-26T03:18:54.317Z,1.98
2023-08-26T03:21:22.474Z,1.88
2023-08-26T03:23:49.570Z,1.90
2023-08-26T03:26:16.716Z,1.83
2023-08-26T03:28:44.019Z,1.77
2023-08-26T03:31:12.140Z,1.42
2023-08-26T03:33:45.490Z,1.58
2023-08-26T03:36:13.472Z,1.45
2023-08-26T03:38:40.532Z,1.60
2023-08-26T03:41:08.004Z,1.52
2023-08-26T03:43:35.315Z,1.50
2023-08-26T03:46:04.808Z,1.38
2023-08-26T03:48:32.320Z,1.55
2023-08-26T03:50:59.939Z,1.58
2023-08-26T03:53:28.641Z,1.40
2023-08-26T03:55:55.863Z,1.90
2023-08-26T03:58:23.071Z,2.13
2023-08-26T04:01:21.580Z,1.95
2023-08-26T04:03:52.447Z,1.75
2023-08-26T04:06:20.117Z,2.10
2023-08-26T04:08:47.298Z,1.85
2023-08-26T04:11:16.431Z,1.85
2023-08-26T04:13:43.566Z,2.03
2023-08-26T04:16:10.673Z,2.08
2023-08-26T04:18:37.776Z,2.15
2023-08-26T04:21:05.667Z,2.17
2023-08-26T04:23:32.792Z,2.10
2023-08-26T04:26:07.133Z,2.25
2023-08-26T04:28:34.254Z,2.00
2023-08-26T04:31:01.697Z,2.35
2023-08-26T04:33:29.217Z,2.72
2023-08-26T04:35:56.340Z,2.00
2023-08-26T04:38:23.545Z,2.67
2023-08-26T04:40:50.690Z,2.10
2023-08-26T04:43:18.229Z,2.30
2023-08-26T04:45:45.379Z,2.45
2023-08-26T04:48:13.942Z,2.70
2023-08-26T04:50:42.849Z,2.45
2023-08-26T04:53:10.087Z,2.33
2023-08-26T04:55:38.016Z,2.40
2023-08-26T04:58:07.974Z,2.60
2023-08-26T05:00:35.299Z,2.78
2023-08-26T05:03:02.594Z,2.13
2023-08-26T05:05:29.754Z,2.55
2023-08-26T05:07:57.348Z,2.85
2023-08-26T05:10:24.718Z,2.40
2023-08-26T05:12:51.914Z,2.33
2023-08-26T05:15:18.990Z,2.83
2023-08-26T05:17:46.512Z,2.13
2023-08-26T05:20:13.743Z,2.92
2023-08-26T05:22:44.000Z,2.75
2023-08-26T05:25:11.231Z,2.72
2023-08-26T05:27:38.345Z,2.65
2023-08-26T05:30:06.522Z,3.03
2023-08-26T05:32:40.295Z,3.08
2023-08-26T05:39:06.128Z,2.72
2023-08-26T05:41:33.931Z,2.78
2023-08-26T05:44:01.132Z,3.50
2023-08-26T05:46:28.294Z,3.35
2023-08-26T05:48:55.457Z,3.10
2023-08-26T05:51:23.011Z,3.35
2023-08-26T05:53:50.153Z,3.15
2023-08-26T05:56:17.211Z,3.17
2023-08-26T05:58:44.678Z,3.05
2023-08-26T06:01:11.748Z,2.95
2023-08-26T06:03:38.881Z,2.97
2023-08-26T06:06:06.889Z,2.80
2023-08-26T06:08:34.076Z,2.85
2023-08-26T06:11:01.144Z,3.30
2023-08-26T06:13:28.858Z,3.45
2023-08-26T06:15:56.886Z,2.65
2023-08-26T06:18:25.201Z,3.33
2023-08-26T06:20:52.973Z,3.33
2023-08-26T06:23:21.102Z,3.13
2023-08-26T06:25:58.566Z,3.28
2023-08-26T06:28:26.932Z,3.22
2023-08-26T06:30:59.285Z,3.35
2023-08-26T06:33:30.062Z,3.95
2023-08-26T06:35:57.276Z,3.38
2023-08-26T06:38:24.386Z,3.55
2023-08-26T06:40:57.238Z,3.70
2023-08-26T06:43:25.448Z,3.35
2023-08-26T06:45:53.383Z,3.70
2023-08-26T06:48:20.880Z,3.80
2023-08-26T06:51:39.218Z,3.80
2023-08-26T06:54:06.587Z,3.28
2023-08-26T06:56:33.692Z,3.35
2023-08-26T06:59:00.780Z,3.58
2023-08-26T07:01:27.998Z,3.80
2023-08-26T07:04:03.600Z,3.42
2023-08-26T07:06:30.839Z,3.88
2023-08-26T07:08:58.058Z,3.78
2023-08-26T07:11:25.205Z,3.50
2023-08-26T07:13:52.307Z,4.18
2023-08-26T07:16:19.406Z,3.88
2023-08-26T07:18:46.678Z,3.78
2023-08-26T07:21:15.452Z,3.75
2023-08-26T07:23:42.654Z,3.58
2023-08-26T07:26:09.960Z,3.70
2023-08-26T07:28:37.032Z,3.40
2023-08-26T07:31:05.910Z,3.80
2023-08-26T07:33:33.648Z,4.10
2023-08-26T07:36:07.546Z,3.38
2023-08-26T07:38:35.428Z,3.92
2023-08-26T07:41:02.606Z,4.50
2023-08-26T07:43:29.693Z,3.83
2023-08-26T07:50:56.724Z,3.13
2023-08-26T07:53:23.918Z,3.90
2023-08-26T07:55:51.084Z,3.58
2023-08-26T07:58:18.124Z,4.47
2023-08-26T08:00:46.313Z,3.63
2023-08-26T08:03:13.643Z,4.40
2023-08-26T08:06:33.717Z,3.35
2023-08-26T08:09:00.936Z,4.20
2023-08-26T08:11:28.344Z,3.65
2023-08-26T08:13:55.433Z,3.45
2023-08-26T08:16:22.507Z,3.45
2023-08-26T08:18:49.657Z,3.05
2023-08-26T08:21:16.735Z,3.20
2023-08-26T08:23:45.244Z,2.90
2023-08-26T08:26:12.943Z,2.65
2023-08-26T08:28:40.072Z,2.85
2023-08-26T08:31:07.222Z,2.55
2023-08-26T08:33:35.340Z,3.47
2023-08-26T08:36:02.687Z,3.13
2023-08-26T08:38:29.757Z,3.30
2023-08-26T08:40:56.825Z,3.67
2023-08-26T08:43:25.196Z,3.08
2023-08-26T08:45:54.187Z,3.10
2023-08-26T08:48:21.864Z,3.10
2023-08-26T08:50:49.056Z,3.35
2023-08-26T08:53:20.325Z,3.28
2023-08-26T08:55:47.676Z,3.00
2023-08-26T08:58:15.245Z,2.22
2023-08-26T09:00:43.314Z,2.30
2023-08-26T09:03:10.905Z,2.65
2023-08-26T09:05:38.374Z,2.25
2023-08-26T09:08:09.439Z,2.22
2023-08-26T09:10:37.072Z,2.60
2023-08-26T09:13:07.738Z,2.60
2023-08-26T09:15:34.900Z,2.63
2023-08-26T09:18:13.499Z,3.13
2023-08-26T09:20:41.552Z,2.40
2023-08-26T09:23:11.434Z,2.15
2023-08-26T09:25:38.764Z,2.35
2023-08-26T09:28:06.320Z,2.53
2023-08-26T09:30:33.464Z,2.58
2023-08-26T09:33:00.708Z,2.50
2023-08-26T09:37:59.688Z,2.40
2023-08-26T09:40:27.106Z,2.55
2023-08-26T09:42:54.602Z,2.58
2023-08-26T09:45:22.000Z,2.80
2023-08-26T09:47:52.969Z,2.28
2023-08-26T09:50:34.391Z,2.25
2023-08-26T09:53:01.732Z,2.38
2023-08-26T09:55:31.313Z,2.33
2023-08-26T09:57:59.467Z,2.53
2023-08-26T10:00:27.952Z,2.45
2023-08-26T10:03:03.398Z,2.53
2023-08-26T10:05:33.351Z,2.65
2023-08-26T10:08:07.931Z,2.60
2023-08-26T10:10:50.776Z,2.10
2023-08-26T10:13:21.662Z,2.63
2023-08-26T10:15:52.284Z,2.72
2023-08-26T10:18:50.820Z,2.38
2023-08-26T10:21:18.508Z,2.78
2023-08-26T10:23:50.617Z,2.47
2023-08-26T10:26:20.422Z,2.13
2023-08-26T10:28:48.974Z,2.40
2023-08-26T10:31:17.934Z,2.65
2023-08-26T10:34:04.073Z,2.58
2023-08-26T10:36:34.469Z,2.33
2023-08-26T10:39:02.170Z,2.45
2023-08-26T10:41:29.431Z,2.53
2023-08-26T10:44:02.697Z,2.42
2023-08-26T10:46:38.000Z,2.60
2023-08-26T10:49:05.744Z,2.13
2023-08-26T10:51:36.793Z,2.58
2023-08-26T10:54:07.004Z,2.22
2023-08-26T10:56:40.931Z,2.20
2023-08-26T10:59:08.790Z,2.17
2023-08-26T11:01:37.180Z,2.33
2023-08-26T11:04:06.307Z,2.70
2023-08-26T11:06:42.855Z,2.28
2023-08-26T11:09:15.367Z,2.30
2023-08-26T11:11:43.896Z,2.40
2023-08-26T11:14:11.429Z,2.67
2023-08-26T11:16:38.621Z,2.30
2023-08-26T11:19:08.066Z,2.15
2023-08-26T11:21:39.165Z,2.28
2023-08-26T11:24:06.438Z,2.22
2023-08-26T11:26:33.734Z,2.40
2023-08-26T11:29:02.132Z,2.10
2023-08-26T11:31:30.212Z,2.05
2023-08-26T11:33:57.696Z,2.05
2023-08-26T11:36:26.096Z,2.40
2023-08-26T11:38:53.247Z,2.28
2023-08-26T11:41:22.278Z,2.20
2023-08-26T11:43:49.358Z,2.30
2023-08-26T11:46:19.109Z,2.25
2023-08-26T11:48:46.364Z,2.20
2023-08-26T11:51:13.509Z,2.40
2023-08-26T11:53:40.752Z,2.53
2023-08-26T11:56:08.492Z,2.38
2023-08-26T11:58:39.010Z,2.78
2023-08-26T12:01:09.402Z,2.90
2023-08-26T12:03:44.992Z,3.00
2023-08-26T12:06:14.852Z,2.47
2023-08-26T12:08:42.052Z,2.60
2023-08-26T12:11:09.105Z,3.20
2023-08-26T12:13:40.427Z,2.42
2023-08-26T12:16:07.567Z,2.97
2023-08-26T12:18:34.836Z,2.65
2023-08-26T12:21:02.137Z,2.40
2023-08-26T12:23:30.176Z,3.05
2023-08-26T12:25:57.505Z,3.10
2023-08-26T12:28:27.783Z,2.58
2023-08-26T12:30:55.122Z,2.60
2023-08-26T12:33:26.400Z,2.40
2023-08-26T12:35:56.221Z,2.72
2023-08-26T12:38:24.662Z,3.58
2023-08-26T12:40:52.360Z,2.97
2023-08-26T12:43:20.564Z,2.55
2023-08-26T12:45:48.338Z,2.83
2023-08-26T12:48:21.911Z,2.80
2023-08-26T12:51:00.936Z,3.08
2023-08-26T12:53:28.088Z,2.40
2023-08-26T12:55:55.363Z,2.72
2023-08-26T12:58:25.655Z,3.10
2023-08-26T13:00:53.095Z,2.40
2023-08-26T13:03:20.372Z,2.70
2023-08-26T13:05:50.053Z,2.47
2023-08-26T13:10:44.581Z,2.83
2023-08-26T13:13:11.738Z,2.80
2023-08-26T13:15:40.999Z,2.90
2023-08-26T13:18:08.650Z,2.80
2023-08-26T13:20:36.125Z,2.88
2023-08-26T13:23:04.304Z,2.53
2023-08-26T13:25:31.780Z,3.33
2023-08-26T13:27:59.282Z,3.08
2023-08-26T13:30:26.624Z,2.60
2023-08-26T13:32:53.802Z,2.75
2023-08-26T13:35:20.894Z,3.17
2023-08-26T13:37:47.965Z,2.85
2023-08-26T13:40:15.014Z,3.00
2023-08-26T13:42:42.103Z,2.97
2023-08-26T13:45:09.583Z,3.38
2023-08-26T13:47:36.687Z,3.47
2023-08-26T13:50:03.874Z,2.83
2023-08-26T13:52:30.916Z,2.33
2023-08-26T13:54:58.089Z,2.08
2023-08-26T13:57:25.957Z,2.50
2023-08-26T13:59:53.007Z,2.17
2023-08-26T14:02:21.950Z,2.22
2023-08-26T14:04:49.078Z,1.98
2023-08-26T14:07:28.384Z,2.13
2023-08-26T14:09:55.340Z,2.20
2023-08-26T14:12:22.418Z,1.88
2023-08-26T14:14:49.459Z,1.67
2023-08-26T14:17:16.556Z,1.80
2023-08-26T14:19:43.622Z,1.90
2023-08-26T14:22:11.121Z,1.77
2023-08-26T14:24:38.308Z,2.58
2023-08-26T14:27:12.815Z,2.00
2023-08-26T14:34:05.113Z,1.88
2023-08-26T14:36:32.134Z,1.70
2023-08-26T14:39:02.622Z,1.65
2023-08-26T14:41:31.092Z,2.20
2023-08-26T14:43:59.272Z,1.90
2023-08-26T14:46:26.493Z,2.05
2023-08-26T14:48:57.473Z,1.95
2023-08-26T14:51:26.589Z,2.00
2023-08-26T14:53:53.854Z,1.73
2023-08-26T14:56:20.950Z,1.63
2023-08-26T14:58:47.999Z,2.20
2023-08-26T15:01:15.051Z,2.35
2023-08-26T15:03:44.574Z,1.85
2023-08-26T15:06:11.929Z,2.20
2023-08-26T15:08:39.559Z,1.85
2023-08-26T15:11:09.248Z,1.98
2023-08-26T15:13:36.514Z,1.70
2023-08-26T15:16:03.981Z,1.73
2023-08-26T15:18:32.005Z,1.70
2023-08-26T15:20:59.075Z,1.85
2023-08-26T15:23:26.206Z,2.22
2023-08-26T15:25:54.986Z,1.50
2023-08-26T15:28:26.315Z,1.90
2023-08-26T15:30:57.488Z,1.95
2023-08-26T15:33:30.831Z,2.00
2023-08-26T15:35:57.913Z,2.38
2023-08-26T15:38:25.139Z,1.83
2023-08-26T15:40:57.017Z,1.90
2023-08-26T15:43:24.549Z,2.00
2023-08-26T15:45:52.764Z,1.80
2023-08-26T15:48:21.076Z,2.10
2023-08-26T15:50:48.344Z,2.25
2023-08-26T15:53:18.289Z,2.25
2023-08-26T15:55:46.567Z,2.30
2023-08-26T15:58:19.418Z,1.70
2023-08-26T16:01:14.636Z,1.80
2023-08-26T16:03:43.904Z,1.88
2023-08-26T16:06:10.945Z,2.20
2023-08-26T16:08:39.291Z,2.08
2023-08-26T16:11:07.090Z,2.10
2023-08-26T16:13:35.174Z,1.90
2023-08-26T16:16:04.254Z,1.90
2023-08-26T16:18:31.346Z,2.08
2023-08-26T16:25:16.621Z,1.90
2023-08-26T16:27:43.847Z,2.15
2023-08-26T16:30:11.527Z,2.20
2023-08-26T16:32:38.720Z,2.15
2023-08-26T16:35:08.184Z,1.90
2023-08-26T16:37:35.995Z,1.80
2023-08-26T16:40:04.273Z,1.50
2023-08-26T16:42:31.568Z,1.85
2023-08-26T16:44:58.883Z,2.20
2023-08-26T16:47:26.449Z,1.58
2023-08-26T16:49:53.726Z,2.00
2023-08-26T16:52:21.318Z,2.97
2023-08-26T16:54:49.940Z,2.70
2023-08-26T16:57:18.100Z,2.42
2023-08-26T16:59:45.530Z,2.55
2023-08-26T17:02:14.364Z,2.40
2023-08-26T17:04:41.584Z,2.50
2023-08-26T17:07:08.982Z,2.47
2023-08-26T17:09:36.104Z,2.05
2023-08-26T17:12:04.565Z,2.13
2023-08-26T17:14:32.575Z,2.40
2023-08-26T17:17:01.357Z,1.98
2023-08-26T17:19:29.353Z,1.67
2023-08-26T17:26:21.556Z,1.98
2023-08-26T17:28:48.638Z,1.92
2023-08-26T17:31:15.726Z,2.00
2023-08-26T17:33:42.826Z,2.05
2023-08-26T17:36:09.922Z,2.03
2023-08-26T17:38:36.976Z,1.90
2023-08-26T17:41:04.113Z,2.40
2023-08-26T17:43:31.196Z,2.10
2023-08-26T17:45:58.340Z,2.00
2023-08-26T17:48:26.026Z,2.45
2023-08-26T17:50:55.171Z,2.20
2023-08-26T17:53:26.002Z,2.40
2023-08-26T17:55:53.092Z,2.03
2023-08-26T17:58:20.233Z,2.33
2023-08-26T18:00:48.689Z,1.80
2023-08-26T18:03:16.635Z,2.35
2023-08-26T18:05:44.151Z,2.20
2023-08-26T18:08:11.237Z,2.13
2023-08-26T18:10:38.526Z,2.13
2023-08-26T18:13:08.877Z,1.92
2023-08-26T18:15:37.398Z,2.10
2023-08-26T18:18:04.657Z,1.90
2023-08-26T18:20:32.184Z,1.90
2023-08-26T18:22:59.493Z,2.40
2023-08-26T18:25:26.880Z,2.33
2023-08-26T18:27:53.996Z,2.42
2023-08-26T18:30:21.334Z,1.83
2023-08-26T18:32:48.502Z,2.10
2023-08-26T18:35:15.606Z,2.00
2023-08-26T18:37:42.700Z,2.13
2023-08-26T18:40:10.043Z,2.30
2023-08-26T18:42:37.189Z,2.10
2023-08-26T18:45:04.582Z,2.55
2023-08-26T18:47:31.866Z,2.40
2023-08-26T18:49:58.959Z,2.88
2023-08-26T18:52:26.129Z,2.13
2023-08-26T18:54:54.574Z,2.38
2023-08-26T18:57:22.399Z,2.17
2023-08-26T18:59:49.491Z,2.88
2023-08-26T19:02:16.546Z,2.00
2023-08-26T19:04:43.752Z,2.38
2023-08-26T19:07:10.844Z,2.40
2023-08-26T19:09:37.929Z,2.70
2023-08-26T19:12:05.373Z,2.42
2023-08-26T19:14:39.620Z,2.35
2023-08-26T19:17:06.662Z,2.50
2023-08-26T19:19:33.740Z,2.30
2023-08-26T19:22:50.571Z,2.15
2023-08-26T19:25:20.800Z,2.10
2023-08-26T19:27:48.565Z,2.20
2023-08-26T19:30:15.650Z,2.40
2023-08-26T19:32:42.806Z,2.15
2023-08-26T19:35:09.903Z,2.25
2023-08-26T19:37:36.988Z,2.30
2023-08-26T19:40:04.525Z,2.42
2023-08-26T19:42:31.777Z,2.70
2023-08-26T19:44:58.819Z,2.40
2023-08-26T19:47:25.905Z,2.67
2023-08-26T19:49:53.094Z,2.67
2023-08-26T19:52:20.222Z,2.38
2023-08-26T19:54:47.248Z,2.35
2023-08-26T19:57:23.885Z,2.38
2023-08-26T19:59:51.685Z,2.50
2023-08-26T20:02:19.135Z,1.95
2023-08-26T20:04:50.307Z,2.15
2023-08-26T20:07:18.360Z,2.45
2023-08-26T20:09:45.529Z,1.80
2023-08-26T20:12:14.558Z,2.30
2023-08-26T20:17:12.204Z,2.10
2023-08-26T20:19:39.546Z,2.22
2023-08-26T20:22:07.488Z,2.17
2023-08-26T20:24:54.876Z,2.17
2023-08-26T20:27:25.868Z,2.08
2023-08-26T20:29:55.070Z,2.70
2023-08-26T20:32:22.612Z,2.15
2023-08-26T20:34:50.177Z,2.25
2023-08-26T20:37:17.787Z,2.30
2023-08-26T20:39:45.189Z,2.22
2023-08-26T20:42:14.579Z,2.03
2023-08-26T20:44:44.303Z,2.17
2023-08-26T20:51:09.800Z,2.25
2023-08-26T20:53:36.981Z,2.45
2023-08-26T20:56:32.069Z,2.28
2023-08-26T20:58:59.187Z,2.05
2023-08-26T21:01:26.689Z,2.20
2023-08-26T21:03:53.930Z,2.00
2023-08-26T21:06:21.224Z,2.28
2023-08-26T21:08:48.387Z,2.58
2023-08-26T21:11:15.597Z,2.58
2023-08-26T21:13:42.665Z,2.30
2023-08-26T21:16:11.074Z,2.47
2023-08-26T21:18:39.148Z,2.35
2023-08-26T21:21:06.236Z,2.67
2023-08-26T21:23:33.294Z,2.95
2023-08-26T21:26:00.400Z,2.67
2023-08-26T21:28:27.806Z,2.33
2023-08-26T21:30:55.327Z,2.95
2023-08-26T21:33:23.425Z,2.63
2023-08-26T21:35:51.383Z,2.63
2023-08-26T21:38:18.473Z,2.50
2023-08-26T21:40:45.703Z,2.63
2023-08-26T21:43:14.080Z,2.78
2023-08-26T21:45:41.457Z,2.72
2023-08-26T21:48:41.752Z,2.20
2023-08-26T21:51:09.004Z,2.90
2023-08-26T21:53:36.084Z,2.70
2023-08-26T21:56:03.343Z,2.90
2023-08-26T21:58:30.449Z,2.65
2023-08-26T22:01:00.653Z,2.55
2023-08-26T22:03:28.128Z,2.90
2023-08-26T22:05:55.994Z,2.92
2023-08-26T22:08:23.154Z,2.97
2023-08-26T22:10:50.258Z,2.63
2023-08-26T22:13:17.818Z,2.58
2023-08-26T22:15:46.081Z,3.10
2023-08-26T22:18:13.236Z,2.85
2023-08-26T22:20:42.101Z,2.95
2023-08-26T22:23:09.334Z,3.10
2023-08-26T22:25:36.560Z,2.97
2023-08-26T22:28:04.100Z,2.80
2023-08-26T22:30:31.314Z,2.97
2023-08-26T22:32:58.703Z,2.55
2023-08-26T22:35:26.060Z,2.90
2023-08-26T22:37:53.129Z,2.42
2023-08-26T22:40:20.317Z,3.15
2023-08-26T22:42:47.391Z,3.13
2023-08-26T22:45:14.563Z,2.53
2023-08-26T22:47:41.842Z,3.03
2023-08-26T22:50:09.536Z,3.00
2023-08-26T22:52:36.617Z,2.50
2023-08-26T22:55:04.273Z,2.83
2023-08-26T22:57:31.358Z,2.95
2023-08-26T22:59:58.497Z,2.58
2023-08-26T23:02:26.073Z,2.50
2023-08-26T23:04:53.320Z,2.78
2023-08-26T23:07:20.523Z,2.47
2023-08-26T23:09:47.609Z,2.92
2023-08-26T23:12:14.681Z,2.78
2023-08-26T23:14:41.845Z,2.72
2023-08-26T23:17:09.003Z,2.55
2023-08-26T23:19:36.691Z,3.13
2023-08-26T23:22:03.883Z,3.00
2023-08-26T23:24:31.086Z,3.30
2023-08-26T23:26:58.276Z,2.95
2023-08-26T23:29:25.358Z,3.05
2023-08-26T23:31:52.668Z,3.30
2023-08-26T23:34:20.023Z,2.97
2023-08-26T23:36:47.912Z,2.97
2023-08-26T23:39:15.131Z,3.25
2023-08-26T23:41:42.890Z,3.92
2023-08-26T23:44:09.993Z,3.25
2023-08-26T23:46:37.306Z,3.80
2023-08-26T23:49:04.453Z,3.95
2023-08-26T23:51:31.800Z,4.15
2023-08-26T23:53:59.067Z,3.47
2023-08-26T23:56:26.166Z,4.07
2023-08-26T23:58:53.264Z,4.10
